Antis, PA

9:16 PM EDT on April 25, 2015 (GMT -0400)
NE Altoona-Broadway | | Change Station
CLOSE
Current Station
Personal Weather Station
Location: Altoona, PA
Elevation: 1188 ft
Nearby Weather Stations

Elev 1188 ft 40.54 °N, 78.39 °W | Updated 4 minutes ago

Mostly Cloudy
Mostly Cloudy
49.6 °F
Feels Like 50 °F
N
0.9
Wind Variable Wind from North

Today
High -- | Low -- °F
--% Chance of Precip.
Yesterday
High -- | Low -- °F
Precip. -- in
6:20 AM 8:02 PM
Waxing Crescent, 50% visible
Pressure 29.73 in
Visibility 10.0 miles
Clouds Clear
Windchill 50 °F
Dew Point 29 °F
Humidity 45%
Rainfall -999.00 in
Snow Depth Not available.
UV 0 out of 12
Pollen 9.40 out of 12
Air Quality Not available.
Flu Activity Sporadic
METAR KAOO 260053Z AUTO 17003KT 10SM CLR 08/M02 A2970 RMK AO2 SLP066 T00831022

More Conditions Fewer Conditions

Pressure 29.73 in
Visibility 10.0 miles
Clouds Clear
Windchill 50 °F
Dew Point 29 °F
Humidity 45%
Rainfall -999.00 in
Snow Depth Not available.
UV 0 out of 12
Pollen 9.40 out of 12
Air Quality Not available.
Flu Activity Sporadic
METAR KAOO 260053Z AUTO 17003KT 10SM CLR 08/M02 A2970 RMK AO2 SLP066 T00831022

More Conditions Fewer Conditions

Nowcast | as of 5:27 PM EDT on April 25, 2015

Bands of showers will be across south central Pennsylvania this evening. Most of the showers will be along the Maryland border but a few showers may get as far north as Route 22 by midnight. The showers are moving southeast at 40 mph.

×

10-Day Weather Forecast

Almanac

Astronomy

Apr. 25, 2015 Rise Set
Actual Time
Civil Twilight
Nautical Twilight
Astronomical Twilight
Moon
Length of Visible Light
Length of Day
Tomorrow will be .
, % of the Moon is Illuminated

Today's Extremes

State Highs State Lows

Community

WunderPhotos

Upload Photos

1,816,878 photos uploaded!

WunderBlogs® & News

Nearby

Air Quality

  Air Quality AQ Index Pollutant
Not available.

Snow Depth

Station Depth Elevation

Earthquake Activity

City Distance Mag. Time & Date
Minimum magnitude displayed is 2.5.

Coastal Water Temperatures

Place Temperature

Stations

Nearby Weather Stations

Station Location Temp. Windchill Dew Point Humidity Wind Precip. Elev Updated Type